Mason, OH (45040)

4:04 AM EDT on August 31, 2015 (GMT -0400)
APRSWXNET | | Change Station
CLOSE
Current Station
Personal Weather Station
Location: Mason, OH
Elevation: 902 ft
Nearby Weather Stations

Elev 902 ft 39.35 °N, 84.33 °W | Updated 19 minutes ago

Fog
Fog
67 °F
Feels Like 67 °F
N
0
Wind Variable Wind from West
Gusts 0.0 mph

Today
High -- | Low -- °F
--% Chance of Precip.
Yesterday
High -- | Low -- °F
Precip. -- in
7:04 AM 8:09 PM
Waning Gibbous, 96% visible
Pressure 30.09 in
Visibility 4.0 miles
Clouds Few 200 ft
Dew Point 66 °F
Humidity 97%
Rainfall in
Snow Depth Not available.
UV 0 out of 12
Pollen 10.10 out of 12
Air Quality Not available.
Flu Activity Not available.
METAR KHAO 310708Z AUTO 00000KT 4SM BR FEW002 18/18 A3009 RMK AO2 T01830178
Pressure 30.09 in
Visibility 4.0 miles
Clouds Few 200 ft
Dew Point 66 °F
Humidity 97%
Rainfall in
Snow Depth Not available.
UV 0 out of 12
Pollen 10.10 out of 12
Air Quality Not available.
Flu Activity Not available.
METAR KHAO 310708Z AUTO 00000KT 4SM BR FEW002 18/18 A3009 RMK AO2 T01830178

10-Day Weather Forecast

×

Almanac

Astronomy

Aug. 31, 2015 Rise Set
Actual Time
Civil Twilight
Nautical Twilight
Astronomical Twilight
Moon
Length of Visible Light
Length of Day
Tomorrow will be .
, % of the Moon is Illuminated

Today's Extremes

State Highs State Lows

Community

WunderPhotos

Upload Photos

1,851,220 photos uploaded!

WunderBlogs® & News

Nearby

Air Quality

  Air Quality AQ Index Pollutant
Not available.

Snow Depth

Station Depth Elevation

Earthquake Activity

City Distance Mag. Time & Date
Minimum magnitude displayed is 2.5.

Coastal Water Temperatures

Place Temperature

Stations

Nearby Weather Stations

Station Location Temp. Windchill Dew Point Humidity Wind Precip. Elev Updated Type